Time;durP1;ratioP1;P1;durP2;ratioP2;P2;SDS_P1;SDS_P2;PMS_P1;PMS_P2;Temp;Humidity;BMP_temperature;BMP_pressure;BME280_temperature;BME280_humidity;BME280_pressure;Samples;Min_cycle;Max_cycle;Signal;HPM_P1;HPM_P2
2022/11/14 00:00:24;;;;;;;56.85;21.00;;;;;;;;;;5052969;28;20045;-80
2022/11/14 00:02:50;;;;;;;64.35;23.95;;;;;;;;;;5052979;28;20037;-74
2022/11/14 00:05:16;;;;;;;64.00;20.75;;;;;;;;;;5052500;28;20041;-75
2022/11/14 00:07:43;;;;;;;56.08;19.88;;;;;;;;;;5019953;28;20521;-75
2022/11/14 00:10:09;;;;;;;54.20;19.05;;;;;;;;;;5052461;28;20041;-75
2022/11/14 00:12:35;;;;;;;45.35;15.77;;;;;;;;;;5053518;28;20468;-76
2022/11/14 00:15:01;;;;;;;51.13;18.88;;;;;;;;;;5052778;28;20041;-75
2022/11/14 00:17:27;;;;;;;64.28;23.52;;;;;;;;;;5052396;28;20051;-74
2022/11/14 00:19:53;;;;;;;62.08;22.42;;;;;;;;;;5048712;28;20538;-77
2022/11/14 00:22:19;;;;;;;58.55;18.63;;;;;;;;;;5042624;28;20505;-74
2022/11/14 00:24:45;;;;;;;66.97;24.42;;;;;;;;;;5035856;28;20067;-74
2022/11/14 00:27:11;;;;;;;65.72;21.02;;;;;;;;;;5060254;28;20045;-76
2022/11/14 00:29:38;;;;;;;58.50;19.85;;;;;;;;;;5039993;28;20044;-80
2022/11/14 00:32:04;;;;;;;61.95;21.88;;;;;;;;;;5035351;28;20048;-75
2022/11/14 00:34:30;;;;;;;59.38;21.60;;;;;;;;;;5052329;28;20045;-75
2022/11/14 00:36:56;;;;;;;54.35;18.58;;;;;;;;;;5035469;28;20052;-78
2022/11/14 00:39:22;;;;;;;63.42;21.65;;;;;;;;;;5053227;28;20077;-78
2022/11/14 00:41:48;;;;;;;64.80;23.20;;;;;;;;;;5052116;28;20048;-79
2022/11/14 00:44:14;;;;;;;65.35;23.83;;;;;;;;;;5035139;28;20119;-78
2022/11/14 00:46:40;;;;;;;66.72;24.45;;;;;;;;;;5052381;28;20041;-75
2022/11/14 00:49:06;;;;;;;63.10;23.80;;;;;;;;;;5052014;28;20502;-74
2022/11/14 00:51:32;;;;;;;59.17;20.85;;;;;;;;;;5084622;28;20498;-75
2022/11/14 00:53:58;;;;;;;59.40;19.38;;;;;;;;;;5052152;28;20585;-79
2022/11/14 00:56:24;;;;;;;49.97;16.00;;;;;;;;;;5051618;28;20041;-77
2022/11/14 00:58:50;;;;;;;53.88;19.98;;;;;;;;;;5051578;28;20044;-76
2022/11/14 01:01:16;;;;;;;60.40;22.20;;;;;;;;;;5051461;28;20041;-75
2022/11/14 01:03:42;;;;;;;67.75;24.45;;;;;;;;;;5035693;28;20539;-74
2022/11/14 01:06:10;;;;;;;63.42;22.70;;;;;;;;;;5051196;28;20049;-80
2022/11/14 01:08:36;;;;;;;64.20;23.30;;;;;;;;;;5051232;28;20041;-79
2022/11/14 01:11:08;;;;;;;64.85;22.80;;;;;;;;;;5071279;28;20127;-79
2022/11/14 01:13:34;;;;;;;53.03;21.33;;;;;;;;;;5051363;28;20052;-79
2022/11/14 01:16:00;;;;;;;58.78;22.60;;;;;;;;;;5059653;28;20068;-79
2022/11/14 01:18:27;;;;;;;67.68;25.63;;;;;;;;;;5056651;28;20109;-80
2022/11/14 01:20:53;;;;;;;57.67;23.25;;;;;;;;;;5051376;28;20071;-78
2022/11/14 01:23:19;;;;;;;66.70;26.15;;;;;;;;;;5034623;28;20048;-79
2022/11/14 01:25:45;;;;;;;63.65;23.73;;;;;;;;;;5051474;28;20120;-79
2022/11/14 01:28:13;;;;;;;40.00;14.60;;;;;;;;;;5051033;28;20128;-79
2022/11/14 01:30:39;;;;;;;58.58;23.35;;;;;;;;;;5051032;28;20040;-78
2022/11/14 01:33:06;;;;;;;63.75;24.23;;;;;;;;;;5051311;28;20037;-80
2022/11/14 01:35:32;;;;;;;48.55;20.05;;;;;;;;;;5051286;28;20453;-79
2022/11/14 01:37:58;;;;;;;55.55;22.73;;;;;;;;;;5051094;28;20126;-79
2022/11/14 01:40:24;;;;;;;65.65;26.00;;;;;;;;;;5052400;28;20045;-80
2022/11/14 01:43:21;;;;;;;57.92;24.75;;;;;;;;;;5047967;28;20049;-80
2022/11/14 01:45:56;;;;;;;59.88;21.58;;;;;;;;;;5045567;28;20119;-80
2022/11/14 01:48:35;;;;;;;60.72;24.02;;;;;;;;;;5050708;28;20060;-74
2022/11/14 01:51:04;;;;;;;66.00;26.13;;;;;;;;;;5038653;28;20042;-74
2022/11/14 01:53:31;;;;;;;63.58;25.27;;;;;;;;;;5050648;28;20045;-80
2022/11/14 01:55:58;;;;;;;59.35;23.35;;;;;;;;;;5050916;28;20043;-78
2022/11/14 01:58:25;;;;;;;58.80;21.65;;;;;;;;;;5033921;28;20063;-75
2022/11/14 02:00:51;;;;;;;61.40;24.00;;;;;;;;;;5018243;28;20048;-79
2022/11/14 02:03:17;;;;;;;64.35;25.02;;;;;;;;;;5058092;28;20116;-79
2022/11/14 02:05:45;;;;;;;61.28;24.48;;;;;;;;;;5057618;28;20036;-80
2022/11/14 02:08:12;;;;;;;62.47;24.38;;;;;;;;;;5058056;28;20517;-75
2022/11/14 02:10:38;;;;;;;58.63;22.60;;;;;;;;;;5041228;28;20557;-74
2022/11/14 02:13:05;;;;;;;65.40;25.27;;;;;;;;;;5058330;28;20457;-75
2022/11/14 02:15:31;;;;;;;67.65;27.00;;;;;;;;;;5058297;28;20112;-74
2022/11/14 02:17:57;;;;;;;67.30;27.20;;;;;;;;;;5040611;28;20041;-74
2022/11/14 02:20:27;;;;;;;69.35;27.08;;;;;;;;;;5040430;28;20048;-74
2022/11/14 02:22:54;;;;;;;59.15;24.02;;;;;;;;;;5057378;28;20091;-74
2022/11/14 02:25:20;;;;;;;63.38;22.40;;;;;;;;;;5040472;28;20044;-80
2022/11/14 02:27:46;;;;;;;69.35;27.77;;;;;;;;;;5058764;28;20049;-80
2022/11/14 02:30:16;;;;;;;62.20;24.92;;;;;;;;;;5040381;28;20053;-79
2022/11/14 02:32:42;;;;;;;68.15;26.83;;;;;;;;;;5057520;28;20514;-79
2022/11/14 02:35:08;;;;;;;66.90;24.48;;;;;;;;;;5041195;28;20367;-74
2022/11/14 02:37:35;;;;;;;68.70;27.52;;;;;;;;;;5057036;28;20485;-74
2022/11/14 02:40:01;;;;;;;68.65;26.00;;;;;;;;;;5057225;28;20132;-74
2022/11/14 02:42:27;;;;;;;69.93;28.67;;;;;;;;;;5052769;28;20048;-75
2022/11/14 02:44:53;;;;;;;66.43;26.48;;;;;;;;;;5031039;28;20116;-74
2022/11/14 02:47:19;;;;;;;61.63;23.33;;;;;;;;;;5057901;28;20044;-75
2022/11/14 02:49:45;;;;;;;70.32;26.63;;;;;;;;;;5058704;28;20037;-74
2022/11/14 02:52:13;;;;;;;74.20;27.58;;;;;;;;;;5057025;28;20041;-74
2022/11/14 02:54:40;;;;;;;75.80;28.88;;;;;;;;;;5056755;28;20073;-74
2022/11/14 02:57:06;;;;;;;70.45;24.92;;;;;;;;;;5058355;28;20509;-74
2022/11/14 02:59:32;;;;;;;79.57;29.80;;;;;;;;;;5040565;28;20473;-74
2022/11/14 03:01:58;;;;;;;69.53;24.50;;;;;;;;;;5045886;28;20507;-74
2022/11/14 03:04:24;;;;;;;77.88;29.60;;;;;;;;;;5053373;28;20041;-75
2022/11/14 03:06:50;;;;;;;73.57;28.15;;;;;;;;;;5055974;28;20048;-74
2022/11/14 03:09:17;;;;;;;76.72;29.10;;;;;;;;;;5057968;28;20071;-74
2022/11/14 03:11:43;;;;;;;69.55;26.40;;;;;;;;;;5050062;28;20506;-75
2022/11/14 03:14:09;;;;;;;80.72;29.40;;;;;;;;;;5046598;28;20052;-74
2022/11/14 03:16:35;;;;;;;79.75;31.20;;;;;;;;;;5053267;28;20053;-75
2022/11/14 03:19:01;;;;;;;40.42;15.93;;;;;;;;;;5053723;28;20091;-75
2022/11/14 03:21:27;;;;;;;81.03;30.35;;;;;;;;;;5054786;28;20037;-74
2022/11/14 03:23:53;;;;;;;81.78;31.35;;;;;;;;;;5053879;28;20032;-74
2022/11/14 03:26:19;;;;;;;63.70;21.42;;;;;;;;;;5053704;28;20044;-76
2022/11/14 03:28:46;;;;;;;79.25;30.13;;;;;;;;;;5036936;28;20041;-74
2022/11/14 03:31:13;;;;;;;77.40;30.40;;;;;;;;;;5053406;28;20146;-74
2022/11/14 03:33:39;;;;;;;82.55;31.95;;;;;;;;;;5036531;28;20079;-74
2022/11/14 03:36:05;;;;;;;78.63;29.67;;;;;;;;;;5053508;28;20048;-74
2022/11/14 03:38:32;;;;;;;83.32;31.88;;;;;;;;;;5053284;28;20082;-80
2022/11/14 03:40:58;;;;;;;82.05;32.42;;;;;;;;;;5053273;28;20029;-80
2022/11/14 03:43:25;;;;;;;81.25;28.13;;;;;;;;;;5052933;28;20041;-75
2022/11/14 03:45:51;;;;;;;81.13;29.80;;;;;;;;;;5054354;28;20040;-73
2022/11/14 03:48:17;;;;;;;84.45;33.08;;;;;;;;;;5052952;28;20063;-80
2022/11/14 03:50:43;;;;;;;67.10;25.05;;;;;;;;;;5052827;28;20087;-78
2022/11/14 03:53:10;;;;;;;80.75;31.58;;;;;;;;;;5054487;28;20119;-79
2022/11/14 03:55:37;;;;;;;84.25;32.40;;;;;;;;;;5053689;28;20045;-74
2022/11/14 03:58:03;;;;;;;83.43;31.65;;;;;;;;;;5052654;28;20041;-74
2022/11/14 04:00:30;;;;;;;75.13;27.73;;;;;;;;;;5035984;28;20068;-74
2022/11/14 04:02:56;;;;;;;80.60;31.80;;;;;;;;;;5052648;28;20045;-74
2022/11/14 04:05:22;;;;;;;74.10;26.30;;;;;;;;;;5052974;28;20482;-74
2022/11/14 04:07:49;;;;;;;80.03;27.92;;;;;;;;;;5036052;28;20718;-75
2022/11/14 04:10:15;;;;;;;82.45;31.65;;;;;;;;;;5053136;28;20375;-74
2022/11/14 04:12:41;;;;;;;77.53;30.90;;;;;;;;;;5053097;28;20067;-74
2022/11/14 04:15:07;;;;;;;89.63;33.65;;;;;;;;;;5035842;28;20056;-74
2022/11/14 04:17:33;;;;;;;84.25;32.92;;;;;;;;;;5051995;28;20056;-74
2022/11/14 04:19:59;;;;;;;81.20;30.80;;;;;;;;;;5052378;28;20049;-75
2022/11/14 04:22:26;;;;;;;85.57;32.33;;;;;;;;;;5052311;28;20033;-74
2022/11/14 04:24:52;;;;;;;89.03;31.98;;;;;;;;;;5085454;28;20106;-80
2022/11/14 04:27:18;;;;;;;81.38;31.58;;;;;;;;;;5052451;28;20490;-80
2022/11/14 04:29:44;;;;;;;84.38;32.75;;;;;;;;;;5052555;28;20537;-80
2022/11/14 04:32:10;;;;;;;83.82;32.78;;;;;;;;;;5052131;28;20107;-80
2022/11/14 04:34:36;;;;;;;72.13;27.27;;;;;;;;;;5052902;28;20037;-81
2022/11/14 04:37:02;;;;;;;86.20;32.75;;;;;;;;;;5052207;28;20490;-80
2022/11/14 04:39:28;;;;;;;82.60;31.95;;;;;;;;;;5046521;28;20494;-79
2022/11/14 04:41:54;;;;;;;84.75;32.50;;;;;;;;;;5045599;28;20478;-80
2022/11/14 04:44:20;;;;;;;80.28;31.80;;;;;;;;;;5052192;28;20437;-79
2022/11/14 04:46:46;;;;;;;80.55;30.10;;;;;;;;;;5041550;28;20402;-80
2022/11/14 04:49:12;;;;;;;66.10;25.45;;;;;;;;;;5032858;28;20044;-79
2022/11/14 04:51:38;;;;;;;82.35;32.67;;;;;;;;;;5051702;28;20040;-79
2022/11/14 04:54:04;;;;;;;73.43;27.65;;;;;;;;;;5051669;28;20065;-79
2022/11/14 04:56:30;;;;;;;79.30;31.58;;;;;;;;;;5052415;28;20497;-80
2022/11/14 04:58:56;;;;;;;80.55;32.38;;;;;;;;;;5022092;28;20453;-78
2022/11/14 05:01:22;;;;;;;79.57;30.88;;;;;;;;;;5050092;28;20501;-80
2022/11/14 05:03:49;;;;;;;81.88;30.92;;;;;;;;;;5051415;28;20508;-80
2022/11/14 05:06:15;;;;;;;78.82;29.58;;;;;;;;;;5052689;28;20051;-79
2022/11/14 05:08:41;;;;;;;91.72;33.90;;;;;;;;;;5052723;28;20070;-74
2022/11/14 05:11:07;;;;;;;79.80;30.98;;;;;;;;;;5051466;28;20052;-74
2022/11/14 05:13:33;;;;;;;87.13;31.77;;;;;;;;;;5051259;28;20057;-74
2022/11/14 05:16:00;;;;;;;85.68;32.03;;;;;;;;;;5051602;28;20053;-79
2022/11/14 05:18:26;;;;;;;84.82;29.58;;;;;;;;;;5051415;28;20048;-80
2022/11/14 05:20:52;;;;;;;84.45;32.15;;;;;;;;;;5034527;28;20044;-73
2022/11/14 05:23:19;;;;;;;85.43;31.90;;;;;;;;;;5051396;28;20045;-74
2022/11/14 05:25:46;;;;;;;83.72;32.25;;;;;;;;;;5051400;28;20064;-80
2022/11/14 05:28:12;;;;;;;85.20;32.63;;;;;;;;;;5035004;28;20045;-80
2022/11/14 05:30:38;;;;;;;90.95;33.95;;;;;;;;;;5051419;28;20072;-80
2022/11/14 05:33:04;;;;;;;84.97;32.40;;;;;;;;;;5051360;28;20171;-80
2022/11/14 05:35:30;;;;;;;83.03;32.70;;;;;;;;;;5034643;28;20045;-78
2022/11/14 05:37:56;;;;;;;76.20;27.58;;;;;;;;;;5034022;28;20393;-78
2022/11/14 05:40:22;;;;;;;87.78;34.17;;;;;;;;;;5051711;28;20052;-78
2022/11/14 05:42:48;;;;;;;92.10;34.97;;;;;;;;;;5051405;28;20033;-75
2022/11/14 05:45:14;;;;;;;80.43;29.38;;;;;;;;;;5052431;28;20440;-74
2022/11/14 05:47:40;;;;;;;75.80;28.73;;;;;;;;;;5050876;28;20375;-74
2022/11/14 05:50:07;;;;;;;78.40;30.83;;;;;;;;;;5052674;28;20059;-74
2022/11/14 05:52:33;;;;;;;72.25;30.23;;;;;;;;;;5048011;28;20049;-75
2022/11/14 05:54:59;;;;;;;63.70;23.75;;;;;;;;;;5041335;28;20106;-75
2022/11/14 05:57:25;;;;;;;75.60;30.23;;;;;;;;;;5051086;28;20050;-74
2022/11/14 05:59:51;;;;;;;84.75;33.53;;;;;;;;;;5051057;28;20047;-74
2022/11/14 06:02:17;;;;;;;86.10;31.98;;;;;;;;;;5051246;28;20116;-79
2022/11/14 06:04:43;;;;;;;85.38;33.00;;;;;;;;;;5034217;28;20041;-80
2022/11/14 06:07:09;;;;;;;87.15;33.70;;;;;;;;;;5051005;28;20037;-80
2022/11/14 06:09:35;;;;;;;90.18;32.90;;;;;;;;;;5037155;28;20044;-80
2022/11/14 06:12:04;;;;;;;92.38;34.05;;;;;;;;;;5050462;28;20057;-80
2022/11/14 06:14:31;;;;;;;85.28;32.40;;;;;;;;;;5050742;28;20060;-79
2022/11/14 06:16:57;;;;;;;83.47;31.95;;;;;;;;;;5052011;28;20041;-80
2022/11/14 06:19:23;;;;;;;86.32;34.20;;;;;;;;;;5034266;28;20133;-81
2022/11/14 06:21:49;;;;;;;82.75;30.33;;;;;;;;;;5050495;28;20051;-78
2022/11/14 06:24:18;;;;;;;72.30;25.75;;;;;;;;;;5072264;28;20079;-74
2022/11/14 06:26:44;;;;;;;85.90;34.30;;;;;;;;;;5070500;28;20044;-74
2022/11/14 06:29:10;;;;;;;88.20;34.75;;;;;;;;;;5070946;28;20167;-74
2022/11/14 06:31:36;;;;;;;85.20;34.22;;;;;;;;;;5066191;28;20040;-74
2022/11/14 06:34:05;;;;;;;85.25;30.77;;;;;;;;;;5044621;28;20059;-74
2022/11/14 06:36:31;;;;;;;78.35;29.67;;;;;;;;;;5072078;28;20041;-74
2022/11/14 06:38:57;;;;;;;82.72;31.63;;;;;;;;;;5061386;28;20056;-74
2022/11/14 06:41:23;;;;;;;85.22;33.30;;;;;;;;;;5067008;28;20036;-74
2022/11/14 06:43:50;;;;;;;85.88;31.98;;;;;;;;;;5071747;28;20116;-74
2022/11/14 06:46:17;;;;;;;84.47;33.92;;;;;;;;;;5057366;28;20037;-74
2022/11/14 06:48:44;;;;;;;81.00;29.40;;;;;;;;;;5058118;28;20051;-74
2022/11/14 06:51:11;;;;;;;84.97;32.15;;;;;;;;;;5062978;28;20408;-74
2022/11/14 06:53:38;;;;;;;84.28;31.67;;;;;;;;;;5069609;28;20045;-74
2022/11/14 06:56:05;;;;;;;79.50;29.95;;;;;;;;;;5065336;28;20040;-74
2022/11/14 06:58:32;;;;;;;76.43;28.90;;;;;;;;;;5074158;28;20045;-74
2022/11/14 07:01:05;;;;;;;83.93;32.45;;;;;;;;;;5074051;28;20044;-74
2022/11/14 07:03:32;;;;;;;86.10;33.35;;;;;;;;;;5074259;28;20409;-73
2022/11/14 07:05:58;;;;;;;83.20;32.30;;;;;;;;;;5074201;28;20048;-74
2022/11/14 07:08:25;;;;;;;83.18;32.13;;;;;;;;;;5060813;28;20077;-74
2022/11/14 07:10:51;;;;;;;91.60;35.35;;;;;;;;;;5059424;28;20040;-74
2022/11/14 07:13:17;;;;;;;89.47;34.25;;;;;;;;;;5057254;28;20044;-74
2022/11/14 07:15:49;;;;;;;73.47;26.80;;;;;;;;;;5066004;28;20056;-74
2022/11/14 07:18:15;;;;;;;86.88;33.03;;;;;;;;;;5055120;28;20045;-74
2022/11/14 07:20:41;;;;;;;95.32;34.58;;;;;;;;;;5053912;28;20045;-74
2022/11/14 07:23:07;;;;;;;88.85;32.38;;;;;;;;;;5053496;28;20052;-74
2022/11/14 07:25:33;;;;;;;87.18;32.00;;;;;;;;;;5039693;28;20045;-74
2022/11/14 07:27:59;;;;;;;87.47;33.47;;;;;;;;;;5061673;28;20544;-74
2022/11/14 07:30:25;;;;;;;89.50;32.97;;;;;;;;;;5037344;28;20524;-74
2022/11/14 07:32:55;;;;;;;86.03;31.67;;;;;;;;;;5053615;28;20434;-74
2022/11/14 07:35:22;;;;;;;85.43;34.72;;;;;;;;;;5053869;28;20124;-73
2022/11/14 07:37:48;;;;;;;88.43;33.40;;;;;;;;;;5054823;28;20032;-74
2022/11/14 07:40:15;;;;;;;80.95;30.85;;;;;;;;;;5053587;28;20470;-74
2022/11/14 07:42:41;;;;;;;77.68;29.27;;;;;;;;;;5036724;28;20045;-74
2022/11/14 07:45:07;;;;;;;75.53;28.73;;;;;;;;;;5054305;28;20036;-74
2022/11/14 07:47:33;;;;;;;80.47;31.98;;;;;;;;;;5054919;28;20505;-74
2022/11/14 07:49:59;;;;;;;76.25;31.50;;;;;;;;;;5053465;28;20413;-74
2022/11/14 07:52:30;;;;;;;84.13;31.90;;;;;;;;;;5054277;28;20083;-74
2022/11/14 07:54:56;;;;;;;77.57;30.17;;;;;;;;;;5054273;28;20041;-74
2022/11/14 07:57:22;;;;;;;78.85;32.25;;;;;;;;;;5052976;28;20048;-74
2022/11/14 07:59:48;;;;;;;75.72;30.98;;;;;;;;;;5054137;28;20084;-74
2022/11/14 08:02:15;;;;;;;77.38;31.55;;;;;;;;;;5053247;28;20044;-74
2022/11/14 08:04:41;;;;;;;70.43;29.67;;;;;;;;;;5039059;28;20120;-74
2022/11/14 08:07:07;;;;;;;74.78;30.90;;;;;;;;;;5047649;28;20080;-74
2022/11/14 08:09:33;;;;;;;68.03;30.55;;;;;;;;;;5055767;28;20040;-74
2022/11/14 08:12:00;;;;;;;74.38;30.42;;;;;;;;;;5036630;28;20108;-81
2022/11/14 08:14:27;;;;;;;68.15;30.85;;;;;;;;;;5052498;28;20057;-75
2022/11/14 08:16:53;;;;;;;63.17;26.98;;;;;;;;;;5052742;28;20049;-75
2022/11/14 08:19:19;;;;;;;61.40;26.35;;;;;;;;;;5052497;28;20490;-74
2022/11/14 08:21:45;;;;;;;66.50;29.30;;;;;;;;;;5053915;28;20041;-74
2022/11/14 08:24:11;;;;;;;58.10;28.60;;;;;;;;;;5052483;28;20036;-75
2022/11/14 08:26:38;;;;;;;65.10;29.35;;;;;;;;;;5052591;28;20036;-74
2022/11/14 08:29:04;;;;;;;60.00;27.58;;;;;;;;;;5044776;28;20098;-75
2022/11/14 08:31:30;;;;;;;59.67;29.15;;;;;;;;;;5041182;28;20406;-75
2022/11/14 08:33:56;;;;;;;58.70;28.67;;;;;;;;;;5050583;28;20073;-75
2022/11/14 08:36:22;;;;;;;59.20;28.77;;;;;;;;;;5052521;28;20048;-74
2022/11/14 08:38:48;;;;;;;53.30;26.75;;;;;;;;;;5039376;28;20077;-74
2022/11/14 08:41:14;;;;;;;57.00;26.85;;;;;;;;;;5052245;28;20041;-74
2022/11/14 08:43:40;;;;;;;52.88;24.63;;;;;;;;;;5036054;28;20482;-74
2022/11/14 08:46:06;;;;;;;51.13;25.85;;;;;;;;;;5052198;28;20048;-74
2022/11/14 08:48:33;;;;;;;48.67;22.50;;;;;;;;;;5052254;28;20052;-74
2022/11/14 08:51:03;;;;;;;50.88;25.73;;;;;;;;;;5035691;28;20120;-74
2022/11/14 08:53:29;;;;;;;49.88;26.30;;;;;;;;;;5041538;28;20483;-74
2022/11/14 08:55:56;;;;;;;51.58;27.80;;;;;;;;;;5064437;28;20489;-75
2022/11/14 08:58:22;;;;;;;46.28;22.67;;;;;;;;;;5051682;28;20041;-75
2022/11/14 09:00:48;;;;;;;52.20;26.67;;;;;;;;;;5035507;28;20044;-75
2022/11/14 09:03:14;;;;;;;50.53;25.65;;;;;;;;;;5053072;28;20108;-75
2022/11/14 09:05:41;;;;;;;46.67;22.98;;;;;;;;;;5053430;28;20464;-75
2022/11/14 09:08:07;;;;;;;53.22;26.30;;;;;;;;;;5053085;28;20049;-75
2022/11/14 09:10:34;;;;;;;50.63;25.25;;;;;;;;;;5051776;28;20041;-75
2022/11/14 09:13:01;;;;;;;50.33;25.10;;;;;;;;;;5052460;28;20044;-75
2022/11/14 09:15:28;;;;;;;50.67;26.27;;;;;;;;;;5057567;28;20055;-75
2022/11/14 09:17:55;;;;;;;49.83;25.25;;;;;;;;;;5060061;28;20498;-81
2022/11/14 09:20:22;;;;;;;51.85;27.27;;;;;;;;;;5051510;28;20033;-80
2022/11/14 09:22:50;;;;;;;45.55;24.75;;;;;;;;;;5051871;28;20040;-80
2022/11/14 09:25:17;;;;;;;50.42;26.55;;;;;;;;;;5051355;28;20037;-74
2022/11/14 09:27:43;;;;;;;47.67;25.23;;;;;;;;;;5052978;28;20080;-75
2022/11/14 09:30:09;;;;;;;48.08;26.05;;;;;;;;;;5047349;28;20033;-75
2022/11/14 09:32:35;;;;;;;45.17;24.10;;;;;;;;;;5035461;28;20063;-77
2022/11/14 09:35:01;;;;;;;40.17;19.60;;;;;;;;;;5051565;28;20036;-75
2022/11/14 09:37:27;;;;;;;42.90;24.38;;;;;;;;;;5035124;28;20033;-79
2022/11/14 09:39:53;;;;;;;43.03;23.75;;;;;;;;;;5053042;28;20076;-80
2022/11/14 09:42:25;;;;;;;42.17;21.45;;;;;;;;;;5049870;28;20498;-81
2022/11/14 09:44:55;;;;;;;45.80;25.98;;;;;;;;;;5041790;28;20080;-81
2022/11/14 09:47:53;;;;;;;43.92;25.58;;;;;;;;;;5052424;28;20116;-82
2022/11/14 09:50:22;;;;;;;45.88;25.40;;;;;;;;;;5029960;28;20052;-81
2022/11/14 09:52:56;;;;;;;39.85;23.80;;;;;;;;;;5051372;28;20041;-80
2022/11/14 09:55:23;;;;;;;41.50;22.70;;;;;;;;;;5051062;28;20047;-76
2022/11/14 09:57:49;;;;;;;41.67;23.65;;;;;;;;;;5050973;28;20077;-76
2022/11/14 10:00:19;;;;;;;38.20;21.42;;;;;;;;;;5024013;28;20041;-76
2022/11/14 10:02:58;;;;;;;41.03;22.40;;;;;;;;;;5045432;28;20041;-80
2022/11/14 10:05:30;;;;;;;36.10;20.65;;;;;;;;;;5043264;28;20040;-77
2022/11/14 10:08:08;;;;;;;38.38;22.75;;;;;;;;;;5052546;28;20436;-80
2022/11/14 10:10:34;;;;;;;38.33;22.25;;;;;;;;;;5034520;28;20041;-79
2022/11/14 10:13:13;;;;;;;38.88;22.35;;;;;;;;;;5050956;28;20033;-74
2022/11/14 10:15:45;;;;;;;38.85;21.60;;;;;;;;;;5050969;28;20048;-74
2022/11/14 10:18:18;;;;;;;37.13;21.95;;;;;;;;;;5050492;28;20133;-74
2022/11/14 10:20:48;;;;;;;34.75;20.20;;;;;;;;;;5052328;28;20041;-81
2022/11/14 10:23:32;;;;;;;36.13;21.38;;;;;;;;;;5052796;28;20037;-79
2022/11/14 10:26:09;;;;;;;38.75;20.33;;;;;;;;;;5088230;28;20076;-79
2022/11/14 10:28:38;;;;;;;35.50;21.15;;;;;;;;;;5054121;28;20056;-80
2022/11/14 10:31:16;;;;;;;36.28;21.95;;;;;;;;;;5043395;28;20048;-74
2022/11/14 10:34:03;;;;;;;34.72;21.92;;;;;;;;;;5054712;28;20099;-74
2022/11/14 10:36:38;;;;;;;32.92;20.40;;;;;;;;;;5055806;28;20497;-75
2022/11/14 10:39:04;;;;;;;32.35;20.67;;;;;;;;;;5054980;28;20401;-79
2022/11/14 10:41:30;;;;;;;33.55;21.25;;;;;;;;;;5054793;28;20041;-80
2022/11/14 10:43:56;;;;;;;33.75;21.45;;;;;;;;;;5055010;28;20037;-80
2022/11/14 10:46:34;;;;;;;33.20;20.23;;;;;;;;;;5038085;28;20040;-80
2022/11/14 10:49:01;;;;;;;32.17;21.15;;;;;;;;;;5055309;28;20045;-80
2022/11/14 10:51:36;;;;;;;34.58;21.45;;;;;;;;;;5054623;28;20083;-80
2022/11/14 10:54:10;;;;;;;30.35;20.52;;;;;;;;;;5056007;28;20178;-80
2022/11/14 10:56:49;;;;;;;31.27;20.33;;;;;;;;;;5062590;28;20045;-79
2022/11/14 10:59:16;;;;;;;32.47;20.55;;;;;;;;;;5050578;28;20064;-75
2022/11/14 11:01:43;;;;;;;30.40;18.88;;;;;;;;;;5054628;28;20607;-74
2022/11/14 11:04:19;;;;;;;31.25;19.10;;;;;;;;;;5037694;28;20045;-74
2022/11/14 11:06:45;;;;;;;28.98;16.95;;;;;;;;;;5037770;28;20029;-74
2022/11/14 11:12:06;;;;;;;30.25;20.15;;;;;;;;;;5053996;28;20081;-74
2022/11/14 11:14:33;;;;;;;33.08;21.45;;;;;;;;;;5051609;28;20441;-74
2022/11/14 11:17:14;;;;;;;31.73;20.08;;;;;;;;;;5052485;28;20103;-73
2022/11/14 11:19:41;;;;;;;33.85;20.48;;;;;;;;;;5053678;28;20049;-73
2022/11/14 11:22:22;;;;;;;32.72;20.38;;;;;;;;;;5053834;28;20036;-77
2022/11/14 11:24:48;;;;;;;31.90;19.60;;;;;;;;;;5054136;28;20500;-73
2022/11/14 11:27:23;;;;;;;34.03;20.85;;;;;;;;;;5055033;28;20033;-73
2022/11/14 11:30:01;;;;;;;35.10;20.35;;;;;;;;;;5054936;28;20116;-72
2022/11/14 11:32:28;;;;;;;35.00;19.92;;;;;;;;;;5053477;28;20033;-73
2022/11/14 11:34:54;;;;;;;34.03;20.70;;;;;;;;;;5042335;28;20091;-73
2022/11/14 11:37:28;;;;;;;32.60;20.15;;;;;;;;;;5051113;28;20033;-73
2022/11/14 11:39:56;;;;;;;36.50;20.67;;;;;;;;;;5042815;28;20495;-73
2022/11/14 11:42:27;;;;;;;37.28;20.70;;;;;;;;;;5033877;28;20110;-73
2022/11/14 11:44:57;;;;;;;35.55;20.60;;;;;;;;;;5053460;28;20048;-72
2022/11/14 11:47:25;;;;;;;37.08;19.90;;;;;;;;;;5036408;28;20498;-73
2022/11/14 11:49:52;;;;;;;37.17;19.77;;;;;;;;;;5053394;28;20044;-74
2022/11/14 11:52:37;;;;;;;39.10;21.77;;;;;;;;;;5053472;28;20041;-74
2022/11/14 11:55:17;;;;;;;41.97;22.30;;;;;;;;;;5054533;28;20041;-74
2022/11/14 11:58:06;;;;;;;39.05;19.20;;;;;;;;;;5052565;28;20171;-74
2022/11/14 12:00:32;;;;;;;38.72;21.58;;;;;;;;;;5045281;28;20053;-74
2022/11/14 12:02:59;;;;;;;39.80;21.77;;;;;;;;;;5053036;28;20037;-73
2022/11/14 12:05:28;;;;;;;37.90;21.23;;;;;;;;;;5053014;28;20064;-74
2022/11/14 12:08:06;;;;;;;42.38;21.55;;;;;;;;;;5049366;28;20092;-74
2022/11/14 12:10:41;;;;;;;39.25;18.73;;;;;;;;;;5044113;28;20048;-74
2022/11/14 12:13:07;;;;;;;36.38;19.27;;;;;;;;;;5052589;28;20048;-74
2022/11/14 12:15:44;;;;;;;40.78;20.77;;;;;;;;;;5052625;28;20044;-74
2022/11/14 12:18:34;;;;;;;42.25;22.92;;;;;;;;;;5036081;28;20048;-80
2022/11/14 12:21:00;;;;;;;38.50;19.90;;;;;;;;;;5027207;28;20045;-79
2022/11/14 12:23:47;;;;;;;38.25;19.45;;;;;;;;;;5048239;28;20475;-74
2022/11/14 12:26:32;;;;;;;37.38;19.80;;;;;;;;;;5053990;28;20098;-74
2022/11/14 12:29:15;;;;;;;37.00;19.95;;;;;;;;;;5053848;28;20037;-74
2022/11/14 12:31:41;;;;;;;36.30;19.42;;;;;;;;;;5053745;28;20444;-74
2022/11/14 12:34:15;;;;;;;36.30;20.88;;;;;;;;;;5053646;28;20466;-74
2022/11/14 12:36:42;;;;;;;35.72;17.63;;;;;;;;;;5052367;28;20045;-74
2022/11/14 12:39:20;;;;;;;36.85;18.15;;;;;;;;;;5038145;28;20371;-79
2022/11/14 12:41:46;;;;;;;33.55;18.75;;;;;;;;;;5035799;28;20056;-80
2022/11/14 12:44:31;;;;;;;34.13;18.17;;;;;;;;;;5052289;28;20064;-80
2022/11/14 12:47:06;;;;;;;33.70;18.88;;;;;;;;;;5036089;28;20493;-79
2022/11/14 12:49:48;;;;;;;32.47;18.75;;;;;;;;;;5038743;28;20540;-80
2022/11/14 12:52:33;;;;;;;32.45;18.38;;;;;;;;;;5035922;28;20561;-79
2022/11/14 12:54:59;;;;;;;32.15;16.15;;;;;;;;;;5035669;28;20119;-80
2022/11/14 12:57:48;;;;;;;31.63;17.20;;;;;;;;;;5053610;28;20392;-81
2022/11/14 13:00:14;;;;;;;30.05;17.25;;;;;;;;;;5052205;28;20106;-79
2022/11/14 13:02:59;;;;;;;32.33;17.88;;;;;;;;;;5035571;28;20162;-81
2022/11/14 13:05:38;;;;;;;32.75;16.23;;;;;;;;;;5085732;28;20043;-80
2022/11/14 13:08:27;;;;;;;29.40;15.27;;;;;;;;;;5053229;28;20043;-78
2022/11/14 13:10:53;;;;;;;34.65;18.88;;;;;;;;;;5052153;28;20458;-80
2022/11/14 13:21:44;;;;;;;35.17;18.52;;;;;;;;;;5051701;28;20040;-80
2022/11/14 13:24:11;;;;;;;32.30;17.02;;;;;;;;;;5052066;28;20371;-80
2022/11/14 13:26:42;;;;;;;32.10;17.92;;;;;;;;;;5051565;28;20041;-80
2022/11/14 13:29:28;;;;;;;33.47;18.25;;;;;;;;;;5054461;28;20422;-83
2022/11/14 13:31:55;;;;;;;32.80;16.85;;;;;;;;;;5065447;28;20044;-82
2022/11/14 13:34:27;;;;;;;32.10;17.98;;;;;;;;;;5064429;28;20049;-80
2022/11/14 13:36:53;;;;;;;37.22;18.95;;;;;;;;;;5066265;28;20588;-82
2022/11/14 13:39:27;;;;;;;31.73;17.08;;;;;;;;;;5071599;28;20045;-81
2022/11/14 13:42:04;;;;;;;32.20;17.55;;;;;;;;;;5071461;28;20124;-79
2022/11/14 13:44:50;;;;;;;30.42;17.45;;;;;;;;;;5079166;28;20037;-80
2022/11/14 13:47:25;;;;;;;30.95;17.73;;;;;;;;;;5041258;28;20115;-80
2022/11/14 13:50:03;;;;;;;27.87;16.03;;;;;;;;;;5055004;28;20040;-80
2022/11/14 13:52:33;;;;;;;32.33;17.52;;;;;;;;;;5071579;28;20333;-81
2022/11/14 13:55:00;;;;;;;29.73;17.15;;;;;;;;;;5063956;28;20041;-80
2022/11/14 13:57:41;;;;;;;28.83;16.83;;;;;;;;;;5050192;28;20041;-79
2022/11/14 14:00:13;;;;;;;27.63;15.25;;;;;;;;;;5072576;28;20093;-81
2022/11/14 14:02:39;;;;;;;30.42;16.45;;;;;;;;;;5054956;28;20124;-81
2022/11/14 14:05:20;;;;;;;28.30;16.70;;;;;;;;;;5060442;28;20507;-83
2022/11/14 14:08:05;;;;;;;29.50;16.65;;;;;;;;;;5057087;28;20056;-80
2022/11/14 14:10:46;;;;;;;28.63;17.05;;;;;;;;;;5071006;28;20045;-74
2022/11/14 14:13:15;;;;;;;30.02;17.27;;;;;;;;;;5070786;28;20048;-74
2022/11/14 14:15:48;;;;;;;29.63;17.88;;;;;;;;;;5062744;28;20056;-74
2022/11/14 14:18:14;;;;;;;31.10;17.75;;;;;;;;;;5036858;28;20046;-74
2022/11/14 14:20:44;;;;;;;33.75;18.30;;;;;;;;;;5050463;28;20041;-75
2022/11/14 14:23:24;;;;;;;30.65;15.68;;;;;;;;;;5051214;28;20037;-74
2022/11/14 14:25:53;;;;;;;27.40;16.85;;;;;;;;;;5070766;28;20401;-74
2022/11/14 14:28:39;;;;;;;28.05;16.60;;;;;;;;;;5049318;28;20068;-74
2022/11/14 14:31:10;;;;;;;30.42;17.45;;;;;;;;;;5061260;28;20097;-74
2022/11/14 14:33:43;;;;;;;26.95;16.10;;;;;;;;;;5070804;28;20052;-74
2022/11/14 14:36:26;;;;;;;30.15;17.75;;;;;;;;;;5077492;28;20072;-74